Pagina principale
METAR-TAF:

METAR-TAF

Aeroporti :

Grenchen, Svizzera

latitudine: 47-10-53N, longitudine: 007-24-59E, altezza: 430 m

Osservazione

Il bollettino è stato emesso 16 minuti fa, alle 12:20 UTC
Vento 4 kt da ovest/sud-ovest
Temperature 19°C
Umidità 73%
Pressione 1019 hPa
Visibilità 10 km o più
Poco nuvoloso ad un'altezza di 3000 ft

METAR: LSZG 271220Z 25004KT 9999 FEW030 19/14 Q1019 NOSIG

Ora: 14:36 (12:36 UTC)

Previsione

Il bollettino è stato emesso 1 ora e 11 minuti fa, alle 11:25 UTC
Previsione valida dal 27 alle 12 UTC al 27 alle 21 UTC
Vento 4 kt da sud/sud-ovest
Visibilità 10 km o più
Poco nuvoloso ad un'altezza di 1000 ft
Temporaneamente
dal 27 alle 12 UTC al 27 alle 16 UTC
Visibilità 10 km o più
nessuna nube inferiore a 1500 m e nessun cumulonembo
Probabilità 30% :
Temporaneamente
dal 27 alle 19 UTC al 27 alle 21 UTC
rovesci di pioggia

TAF: LSZG 271125Z 2712/2721 21004KT 9999 FEW010 TEMPO 2712/2716 CAVOK PROB30 TEMPO 2719/2721 SHRA

Osservazioni e previsioni meteorologiche di più di 4000 aeroporti (messaggi METAR e TAF).

Le stazioni disponibili sono rappresentate dai dischi gialli e rossi sulla carta.

Puntare il mouse per vedere il nome della stazione.

Clicca sopra per visualizzare le osservazioni e previsioni meteorologiche.

Per cambiare la mappa : fare clic sui pulsanti verdi con una croce nera per ingrandire, il pulsante verde con un trattino per diminuire, o sulla freccia verde per le mappe adiacenti.


METAR-TAF: